sensor_id;sensor_type;location;lat;lon;timestamp;temperature;humidity
16116;DHT22;8162;47.104;15.432;2022-11-20T00:00:52;2.60;94.40
16116;DHT22;8162;47.104;15.432;2022-11-20T00:03:18;2.60;94.40
16116;DHT22;8162;47.104;15.432;2022-11-20T00:05:44;2.60;94.50
16116;DHT22;8162;47.104;15.432;2022-11-20T00:08:10;2.70;94.50
16116;DHT22;8162;47.104;15.432;2022-11-20T00:10:40;2.70;94.60
16116;DHT22;8162;47.104;15.432;2022-11-20T00:13:06;2.70;94.60
16116;DHT22;8162;47.104;15.432;2022-11-20T00:15:32;2.70;94.70
16116;DHT22;8162;47.104;15.432;2022-11-20T00:17:58;2.80;94.70
16116;DHT22;8162;47.104;15.432;2022-11-20T00:20:24;2.80;94.70
16116;DHT22;8162;47.104;15.432;2022-11-20T00:22:49;2.80;94.70
16116;DHT22;8162;47.104;15.432;2022-11-20T00:25:15;2.80;94.70
16116;DHT22;8162;47.104;15.432;2022-11-20T00:27:41;2.80;94.70
16116;DHT22;8162;47.104;15.432;2022-11-20T00:30:07;2.80;94.70
16116;DHT22;8162;47.104;15.432;2022-11-20T00:32:33;2.80;94.70
16116;DHT22;8162;47.104;15.432;2022-11-20T00:34:58;2.80;94.70
16116;DHT22;8162;47.104;15.432;2022-11-20T00:37:25;2.80;94.70
16116;DHT22;8162;47.104;15.432;2022-11-20T00:39:51;2.80;94.70
16116;DHT22;8162;47.104;15.432;2022-11-20T00:42:16;2.80;94.70
16116;DHT22;8162;47.104;15.432;2022-11-20T00:44:42;2.80;94.70
16116;DHT22;8162;47.104;15.432;2022-11-20T00:47:08;2.80;94.70
16116;DHT22;8162;47.104;15.432;2022-11-20T00:49:33;2.80;94.70
16116;DHT22;8162;47.104;15.432;2022-11-20T00:51:59;2.80;94.60
16116;DHT22;8162;47.104;15.432;2022-11-20T00:54:24;2.70;94.70
16116;DHT22;8162;47.104;15.432;2022-11-20T00:56:52;2.70;94.60
16116;DHT22;8162;47.104;15.432;2022-11-20T00:59:18;2.80;94.60
16116;DHT22;8162;47.104;15.432;2022-11-20T01:01:44;2.80;94.70
16116;DHT22;8162;47.104;15.432;2022-11-20T01:04:10;2.80;94.70
16116;DHT22;8162;47.104;15.432;2022-11-20T01:06:37;2.80;94.70
16116;DHT22;8162;47.104;15.432;2022-11-20T01:09:06;2.80;94.70
16116;DHT22;8162;47.104;15.432;2022-11-20T01:11:35;2.80;94.70
16116;DHT22;8162;47.104;15.432;2022-11-20T01:14:02;2.80;94.70
16116;DHT22;8162;47.104;15.432;2022-11-20T01:16:32;2.90;94.70
16116;DHT22;8162;47.104;15.432;2022-11-20T01:19:00;2.90;94.80
16116;DHT22;8162;47.104;15.432;2022-11-20T01:21:31;2.90;94.80
16116;DHT22;8162;47.104;15.432;2022-11-20T01:23:58;2.90;94.80
16116;DHT22;8162;47.104;15.432;2022-11-20T01:26:26;3.00;94.90
16116;DHT22;8162;47.104;15.432;2022-11-20T01:28:53;3.00;94.90
16116;DHT22;8162;47.104;15.432;2022-11-20T01:33:54;3.00;94.90
16116;DHT22;8162;47.104;15.432;2022-11-20T01:36:21;3.10;94.90
16116;DHT22;8162;47.104;15.432;2022-11-20T01:38:47;3.00;94.90
16116;DHT22;8162;47.104;15.432;2022-11-20T01:41:15;3.00;94.90
16116;DHT22;8162;47.104;15.432;2022-11-20T01:44:02;3.10;94.90
16116;DHT22;8162;47.104;15.432;2022-11-20T01:46:28;3.10;94.90
16116;DHT22;8162;47.104;15.432;2022-11-20T01:49:02;3.10;95.00
16116;DHT22;8162;47.104;15.432;2022-11-20T01:54:38;3.10;94.90
16116;DHT22;8162;47.104;15.432;2022-11-20T01:57:06;3.10;95.00
16116;DHT22;8162;47.104;15.432;2022-11-20T01:59:33;3.10;95.00
16116;DHT22;8162;47.104;15.432;2022-11-20T02:02:01;3.10;95.00
16116;DHT22;8162;47.104;15.432;2022-11-20T02:04:27;3.10;95.00
16116;DHT22;8162;47.104;15.432;2022-11-20T02:07:00;3.10;95.00
16116;DHT22;8162;47.104;15.432;2022-11-20T02:09:27;3.10;95.00
16116;DHT22;8162;47.104;15.432;2022-11-20T02:11:53;3.20;95.00
16116;DHT22;8162;47.104;15.432;2022-11-20T02:14:19;3.10;95.00
16116;DHT22;8162;47.104;15.432;2022-11-20T02:16:47;3.10;95.00
16116;DHT22;8162;47.104;15.432;2022-11-20T02:19:28;3.20;95.00
16116;DHT22;8162;47.104;15.432;2022-11-20T02:22:19;3.20;95.00
16116;DHT22;8162;47.104;15.432;2022-11-20T02:24:47;3.10;95.00
16116;DHT22;8162;47.104;15.432;2022-11-20T02:27:16;3.20;95.10
16116;DHT22;8162;47.104;15.432;2022-11-20T02:29:52;3.20;95.10
16116;DHT22;8162;47.104;15.432;2022-11-20T02:32:33;3.20;95.10
16116;DHT22;8162;47.104;15.432;2022-11-20T02:35:37;3.20;95.10
16116;DHT22;8162;47.104;15.432;2022-11-20T02:37:57;3.20;95.10
16116;DHT22;8162;47.104;15.432;2022-11-20T02:40:23;3.20;95.10
16116;DHT22;8162;47.104;15.432;2022-11-20T02:42:53;3.20;95.10
16116;DHT22;8162;47.104;15.432;2022-11-20T02:45:19;3.20;95.20
16116;DHT22;8162;47.104;15.432;2022-11-20T02:47:45;3.20;95.10
16116;DHT22;8162;47.104;15.432;2022-11-20T02:50:11;3.20;95.10
16116;DHT22;8162;47.104;15.432;2022-11-20T02:52:36;3.20;95.10
16116;DHT22;8162;47.104;15.432;2022-11-20T02:55:02;3.20;95.10
16116;DHT22;8162;47.104;15.432;2022-11-20T02:57:28;3.10;95.10
16116;DHT22;8162;47.104;15.432;2022-11-20T02:59:54;3.10;95.10
16116;DHT22;8162;47.104;15.432;2022-11-20T03:02:19;3.10;95.10
16116;DHT22;8162;47.104;15.432;2022-11-20T03:04:46;3.10;95.10
16116;DHT22;8162;47.104;15.432;2022-11-20T03:07:11;3.10;95.10
16116;DHT22;8162;47.104;15.432;2022-11-20T03:09:37;3.20;95.10
16116;DHT22;8162;47.104;15.432;2022-11-20T03:12:03;3.10;95.00
16116;DHT22;8162;47.104;15.432;2022-11-20T03:14:29;3.10;95.00
16116;DHT22;8162;47.104;15.432;2022-11-20T03:16:55;3.10;95.00
16116;DHT22;8162;47.104;15.432;2022-11-20T03:19:21;3.10;95.10
16116;DHT22;8162;47.104;15.432;2022-11-20T03:21:46;3.10;95.10
16116;DHT22;8162;47.104;15.432;2022-11-20T03:24:12;3.10;95.00
16116;DHT22;8162;47.104;15.432;2022-11-20T03:26:38;3.20;95.10
16116;DHT22;8162;47.104;15.432;2022-11-20T03:29:05;3.20;95.10
16116;DHT22;8162;47.104;15.432;2022-11-20T03:31:35;3.20;95.10
16116;DHT22;8162;47.104;15.432;2022-11-20T03:34:02;3.20;95.10
16116;DHT22;8162;47.104;15.432;2022-11-20T03:36:28;3.20;95.10
16116;DHT22;8162;47.104;15.432;2022-11-20T03:38:55;3.20;95.10
16116;DHT22;8162;47.104;15.432;2022-11-20T03:41:26;3.20;95.10
16116;DHT22;8162;47.104;15.432;2022-11-20T03:43:54;3.20;95.10
16116;DHT22;8162;47.104;15.432;2022-11-20T03:46:20;3.20;95.20
16116;DHT22;8162;47.104;15.432;2022-11-20T03:48:46;3.30;95.20
16116;DHT22;8162;47.104;15.432;2022-11-20T03:51:20;3.30;95.20
16116;DHT22;8162;47.104;15.432;2022-11-20T03:53:48;3.30;95.20
16116;DHT22;8162;47.104;15.432;2022-11-20T03:56:16;3.30;95.20
16116;DHT22;8162;47.104;15.432;2022-11-20T03:58:42;3.30;95.20
16116;DHT22;8162;47.104;15.432;2022-11-20T04:03:37;3.30;95.20
16116;DHT22;8162;47.104;15.432;2022-11-20T04:08:33;3.30;95.20
16116;DHT22;8162;47.104;15.432;2022-11-20T04:11:18;3.30;95.20
16116;DHT22;8162;47.104;15.432;2022-11-20T04:13:53;3.30;95.20
16116;DHT22;8162;47.104;15.432;2022-11-20T04:16:19;3.30;95.20
16116;DHT22;8162;47.104;15.432;2022-11-20T04:18:45;3.30;95.20
16116;DHT22;8162;47.104;15.432;2022-11-20T04:21:11;3.30;95.20
16116;DHT22;8162;47.104;15.432;2022-11-20T04:23:37;3.30;95.20
16116;DHT22;8162;47.104;15.432;2022-11-20T04:26:08;3.30;95.20
16116;DHT22;8162;47.104;15.432;2022-11-20T04:28:35;3.30;95.20
16116;DHT22;8162;47.104;15.432;2022-11-20T04:31:06;3.30;95.20
16116;DHT22;8162;47.104;15.432;2022-11-20T04:33:33;3.30;95.20
16116;DHT22;8162;47.104;15.432;2022-11-20T04:36:03;3.30;95.20
16116;DHT22;8162;47.104;15.432;2022-11-20T04:38:29;3.30;95.20
16116;DHT22;8162;47.104;15.432;2022-11-20T04:41:03;3.30;95.20
16116;DHT22;8162;47.104;15.432;2022-11-20T04:43:30;3.30;95.20
16116;DHT22;8162;47.104;15.432;2022-11-20T04:45:57;3.30;95.20
16116;DHT22;8162;47.104;15.432;2022-11-20T04:48:24;3.30;95.20
16116;DHT22;8162;47.104;15.432;2022-11-20T04:50:50;3.30;95.20
16116;DHT22;8162;47.104;15.432;2022-11-20T04:53:16;3.30;95.20
16116;DHT22;8162;47.104;15.432;2022-11-20T04:55:42;3.30;95.20
16116;DHT22;8162;47.104;15.432;2022-11-20T04:58:08;3.30;95.20
16116;DHT22;8162;47.104;15.432;2022-11-20T05:00:33;3.30;95.20
16116;DHT22;8162;47.104;15.432;2022-11-20T05:02:59;3.20;95.20
16116;DHT22;8162;47.104;15.432;2022-11-20T05:05:25;3.20;95.10
16116;DHT22;8162;47.104;15.432;2022-11-20T05:07:51;3.20;95.20
16116;DHT22;8162;47.104;15.432;2022-11-20T05:10:16;3.20;95.20
16116;DHT22;8162;47.104;15.432;2022-11-20T05:12:42;3.20;95.10
16116;DHT22;8162;47.104;15.432;2022-11-20T05:15:08;3.10;95.10
16116;DHT22;8162;47.104;15.432;2022-11-20T05:17:34;3.20;95.20
16116;DHT22;8162;47.104;15.432;2022-11-20T05:19:59;3.10;95.20
16116;DHT22;8162;47.104;15.432;2022-11-20T05:22:25;3.10;95.10
16116;DHT22;8162;47.104;15.432;2022-11-20T05:24:51;3.10;95.10
16116;DHT22;8162;47.104;15.432;2022-11-20T05:27:16;3.10;95.10
16116;DHT22;8162;47.104;15.432;2022-11-20T05:29:42;3.10;95.10
16116;DHT22;8162;47.104;15.432;2022-11-20T05:32:08;3.10;95.10
16116;DHT22;8162;47.104;15.432;2022-11-20T05:34:35;3.00;95.10
16116;DHT22;8162;47.104;15.432;2022-11-20T05:37:02;3.00;95.10
16116;DHT22;8162;47.104;15.432;2022-11-20T05:39:28;3.00;95.10
16116;DHT22;8162;47.104;15.432;2022-11-20T05:41:53;3.00;95.10
16116;DHT22;8162;47.104;15.432;2022-11-20T05:44:37;3.00;95.10
16116;DHT22;8162;47.104;15.432;2022-11-20T05:47:03;3.00;95.10
16116;DHT22;8162;47.104;15.432;2022-11-20T05:49:28;3.00;95.10
16116;DHT22;8162;47.104;15.432;2022-11-20T05:51:54;3.00;95.10
16116;DHT22;8162;47.104;15.432;2022-11-20T05:54:20;2.90;95.10
16116;DHT22;8162;47.104;15.432;2022-11-20T05:56:45;2.90;95.20
16116;DHT22;8162;47.104;15.432;2022-11-20T05:59:11;3.00;95.20
16116;DHT22;8162;47.104;15.432;2022-11-20T06:01:36;3.00;95.20
16116;DHT22;8162;47.104;15.432;2022-11-20T06:04:02;3.00;95.30
16116;DHT22;8162;47.104;15.432;2022-11-20T06:06:31;3.10;95.30
16116;DHT22;8162;47.104;15.432;2022-11-20T06:08:57;3.10;95.40
16116;DHT22;8162;47.104;15.432;2022-11-20T06:11:24;3.20;95.40
16116;DHT22;8162;47.104;15.432;2022-11-20T06:13:50;3.20;95.40
16116;DHT22;8162;47.104;15.432;2022-11-20T06:16:18;3.20;95.40
16116;DHT22;8162;47.104;15.432;2022-11-20T06:18:45;3.20;95.30
16116;DHT22;8162;47.104;15.432;2022-11-20T06:21:13;3.20;95.30
16116;DHT22;8162;47.104;15.432;2022-11-20T06:23:40;3.20;95.30
16116;DHT22;8162;47.104;15.432;2022-11-20T06:26:11;3.20;95.30
16116;DHT22;8162;47.104;15.432;2022-11-20T06:28:38;3.30;95.30
16116;DHT22;8162;47.104;15.432;2022-11-20T06:31:05;3.30;95.30
16116;DHT22;8162;47.104;15.432;2022-11-20T06:33:31;3.30;95.30
16116;DHT22;8162;47.104;15.432;2022-11-20T06:35:58;3.30;95.30
16116;DHT22;8162;47.104;15.432;2022-11-20T06:38:27;3.30;95.30
16116;DHT22;8162;47.104;15.432;2022-11-20T06:40:54;3.30;95.30
16116;DHT22;8162;47.104;15.432;2022-11-20T06:43:20;3.30;95.30
16116;DHT22;8162;47.104;15.432;2022-11-20T06:45:46;3.30;95.30
16116;DHT22;8162;47.104;15.432;2022-11-20T06:48:12;3.30;95.30
16116;DHT22;8162;47.104;15.432;2022-11-20T06:50:37;3.30;95.30
16116;DHT22;8162;47.104;15.432;2022-11-20T06:53:04;3.30;95.30
16116;DHT22;8162;47.104;15.432;2022-11-20T06:55:31;3.40;95.30
16116;DHT22;8162;47.104;15.432;2022-11-20T06:57:57;3.40;95.30
16116;DHT22;8162;47.104;15.432;2022-11-20T07:00:23;3.50;95.40
16116;DHT22;8162;47.104;15.432;2022-11-20T07:02:48;3.50;95.40
16116;DHT22;8162;47.104;15.432;2022-11-20T07:05:15;3.50;95.40
16116;DHT22;8162;47.104;15.432;2022-11-20T07:07:41;3.50;95.40
16116;DHT22;8162;47.104;15.432;2022-11-20T07:10:07;3.60;95.40
16116;DHT22;8162;47.104;15.432;2022-11-20T07:12:33;3.60;95.40
16116;DHT22;8162;47.104;15.432;2022-11-20T07:14:58;3.60;95.50
16116;DHT22;8162;47.104;15.432;2022-11-20T07:17:24;3.70;95.50
16116;DHT22;8162;47.104;15.432;2022-11-20T07:19:50;3.70;95.50
16116;DHT22;8162;47.104;15.432;2022-11-20T07:22:15;3.70;95.50
16116;DHT22;8162;47.104;15.432;2022-11-20T07:24:41;3.80;95.50
16116;DHT22;8162;47.104;15.432;2022-11-20T07:27:07;3.80;95.50
16116;DHT22;8162;47.104;15.432;2022-11-20T07:29:32;3.80;95.50
16116;DHT22;8162;47.104;15.432;2022-11-20T07:31:58;3.80;95.40
16116;DHT22;8162;47.104;15.432;2022-11-20T07:34:23;3.90;95.50
16116;DHT22;8162;47.104;15.432;2022-11-20T07:36:49;3.90;95.50
16116;DHT22;8162;47.104;15.432;2022-11-20T07:39:15;4.00;95.50
16116;DHT22;8162;47.104;15.432;2022-11-20T07:41:40;4.00;95.60
16116;DHT22;8162;47.104;15.432;2022-11-20T07:44:06;4.00;95.50
16116;DHT22;8162;47.104;15.432;2022-11-20T07:46:32;4.10;95.50
16116;DHT22;8162;47.104;15.432;2022-11-20T07:48:57;4.10;95.50
16116;DHT22;8162;47.104;15.432;2022-11-20T07:51:23;4.20;95.50
16116;DHT22;8162;47.104;15.432;2022-11-20T07:53:52;4.20;95.50
16116;DHT22;8162;47.104;15.432;2022-11-20T07:56:18;4.30;95.50
16116;DHT22;8162;47.104;15.432;2022-11-20T07:58:44;4.30;95.50
16116;DHT22;8162;47.104;15.432;2022-11-20T08:01:09;4.30;95.50
16116;DHT22;8162;47.104;15.432;2022-11-20T08:03:36;4.30;95.50
16116;DHT22;8162;47.104;15.432;2022-11-20T08:06:03;4.30;95.50
16116;DHT22;8162;47.104;15.432;2022-11-20T08:08:29;4.30;95.50
16116;DHT22;8162;47.104;15.432;2022-11-20T08:10:57;4.30;95.50
16116;DHT22;8162;47.104;15.432;2022-11-20T08:13:43;4.30;95.40
16116;DHT22;8162;47.104;15.432;2022-11-20T08:16:27;4.40;95.40
16116;DHT22;8162;47.104;15.432;2022-11-20T08:18:53;4.10;94.80
16116;DHT22;8162;47.104;15.432;2022-11-20T08:21:19;4.20;94.80
16116;DHT22;8162;47.104;15.432;2022-11-20T08:23:44;4.20;94.90
16116;DHT22;8162;47.104;15.432;2022-11-20T08:26:10;4.20;94.90
16116;DHT22;8162;47.104;15.432;2022-11-20T08:28:36;4.30;94.90
16116;DHT22;8162;47.104;15.432;2022-11-20T08:31:02;4.30;94.90
16116;DHT22;8162;47.104;15.432;2022-11-20T08:33:29;4.30;94.90
16116;DHT22;8162;47.104;15.432;2022-11-20T08:35:59;4.30;95.00
16116;DHT22;8162;47.104;15.432;2022-11-20T08:38:25;4.30;95.00
16116;DHT22;8162;47.104;15.432;2022-11-20T08:40:51;4.30;95.00
16116;DHT22;8162;47.104;15.432;2022-11-20T08:43:35;4.30;95.00
16116;DHT22;8162;47.104;15.432;2022-11-20T08:46:00;4.30;94.80
16116;DHT22;8162;47.104;15.432;2022-11-20T08:48:26;4.30;94.80
16116;DHT22;8162;47.104;15.432;2022-11-20T08:50:52;4.30;94.80
16116;DHT22;8162;47.104;15.432;2022-11-20T08:53:17;4.40;94.90
16116;DHT22;8162;47.104;15.432;2022-11-20T08:55:43;4.40;95.00
16116;DHT22;8162;47.104;15.432;2022-11-20T08:58:09;4.50;95.00
16116;DHT22;8162;47.104;15.432;2022-11-20T09:00:34;4.60;95.10
16116;DHT22;8162;47.104;15.432;2022-11-20T09:03:00;4.60;95.10
16116;DHT22;8162;47.104;15.432;2022-11-20T09:05:26;4.70;95.20
16116;DHT22;8162;47.104;15.432;2022-11-20T09:07:56;4.70;95.20
16116;DHT22;8162;47.104;15.432;2022-11-20T09:10:22;4.80;95.20
16116;DHT22;8162;47.104;15.432;2022-11-20T09:12:51;4.80;95.20
16116;DHT22;8162;47.104;15.432;2022-11-20T09:15:18;4.80;95.00
16116;DHT22;8162;47.104;15.432;2022-11-20T09:17:54;4.80;94.90
16116;DHT22;8162;47.104;15.432;2022-11-20T09:20:21;4.80;95.00
16116;DHT22;8162;47.104;15.432;2022-11-20T09:22:47;4.80;95.00
16116;DHT22;8162;47.104;15.432;2022-11-20T09:25:12;4.80;94.90
16116;DHT22;8162;47.104;15.432;2022-11-20T09:27:38;4.80;94.80
16116;DHT22;8162;47.104;15.432;2022-11-20T09:30:04;4.80;94.80
16116;DHT22;8162;47.104;15.432;2022-11-20T09:32:30;4.90;94.90
16116;DHT22;8162;47.104;15.432;2022-11-20T09:34:56;4.90;94.90
16116;DHT22;8162;47.104;15.432;2022-11-20T09:37:21;4.90;94.90
16116;DHT22;8162;47.104;15.432;2022-11-20T09:39:47;5.00;95.00
16116;DHT22;8162;47.104;15.432;2022-11-20T09:42:25;5.00;95.00
16116;DHT22;8162;47.104;15.432;2022-11-20T09:53:23;5.30;95.20
16116;DHT22;8162;47.104;15.432;2022-11-20T09:55:51;5.30;95.10
16116;DHT22;8162;47.104;15.432;2022-11-20T10:01:26;5.50;95.20
16116;DHT22;8162;47.104;15.432;2022-11-20T10:09:32;5.60;94.80
16116;DHT22;8162;47.104;15.432;2022-11-20T10:15:12;5.80;94.70
16116;DHT22;8162;47.104;15.432;2022-11-20T10:31:33;6.20;94.20
16116;DHT22;8162;47.104;15.432;2022-11-20T10:34:05;6.20;94.30
16116;DHT22;8162;47.104;15.432;2022-11-20T10:36:44;6.30;94.00
16116;DHT22;8162;47.104;15.432;2022-11-20T10:41:59;6.40;94.30
16116;DHT22;8162;47.104;15.432;2022-11-20T10:44:28;6.40;93.30
16116;DHT22;8162;47.104;15.432;2022-11-20T10:47:17;6.50;93.60
16116;DHT22;8162;47.104;15.432;2022-11-20T10:49:47;6.60;93.60
16116;DHT22;8162;47.104;15.432;2022-11-20T11:00:12;7.10;93.50
16116;DHT22;8162;47.104;15.432;2022-11-20T11:07:57;7.00;89.10
16116;DHT22;8162;47.104;15.432;2022-11-20T11:10:42;6.90;88.10
16116;DHT22;8162;47.104;15.432;2022-11-20T11:13:23;7.10;90.20
16116;DHT22;8162;47.104;15.432;2022-11-20T11:15:49;7.10;89.40
16116;DHT22;8162;47.104;15.432;2022-11-20T11:20:56;7.20;89.80
16116;DHT22;8162;47.104;15.432;2022-11-20T11:23:40;7.20;88.60
16116;DHT22;8162;47.104;15.432;2022-11-20T11:26:18;7.20;88.10
16116;DHT22;8162;47.104;15.432;2022-11-20T11:28:56;7.30;89.50
16116;DHT22;8162;47.104;15.432;2022-11-20T11:31:24;7.40;88.90
16116;DHT22;8162;47.104;15.432;2022-11-20T11:33:50;7.40;87.80
16116;DHT22;8162;47.104;15.432;2022-11-20T11:36:22;7.50;89.40
16116;DHT22;8162;47.104;15.432;2022-11-20T11:38:52;7.50;87.90
16116;DHT22;8162;47.104;15.432;2022-11-20T11:41:22;7.40;87.80
16116;DHT22;8162;47.104;15.432;2022-11-20T11:43:57;7.40;88.70
16116;DHT22;8162;47.104;15.432;2022-11-20T11:46:54;7.30;86.50
16116;DHT22;8162;47.104;15.432;2022-11-20T11:49:20;7.40;89.30
16116;DHT22;8162;47.104;15.432;2022-11-20T11:52:03;7.40;89.20
16116;DHT22;8162;47.104;15.432;2022-11-20T11:54:55;7.50;90.00
16116;DHT22;8162;47.104;15.432;2022-11-20T11:57:50;7.50;89.20
16116;DHT22;8162;47.104;15.432;2022-11-20T12:00:19;7.60;87.50
16116;DHT22;8162;47.104;15.432;2022-11-20T12:05:43;7.70;88.20
16116;DHT22;8162;47.104;15.432;2022-11-20T12:16:33;7.90;88.60
16116;DHT22;8162;47.104;15.432;2022-11-20T12:19:00;7.90;86.90
16116;DHT22;8162;47.104;15.432;2022-11-20T12:43:19;8.30;82.60
16116;DHT22;8162;47.104;15.432;2022-11-20T12:46:37;8.40;85.70
16116;DHT22;8162;47.104;15.432;2022-11-20T12:52:36;8.50;82.90
16116;DHT22;8162;47.104;15.432;2022-11-20T12:57:44;8.70;82.70
16116;DHT22;8162;47.104;15.432;2022-11-20T13:00:21;8.80;84.50
16116;DHT22;8162;47.104;15.432;2022-11-20T13:05:47;9.10;80.60
16116;DHT22;8162;47.104;15.432;2022-11-20T13:08:33;9.30;83.00
16116;DHT22;8162;47.104;15.432;2022-11-20T13:11:17;9.50;83.00
16116;DHT22;8162;47.104;15.432;2022-11-20T13:19:21;9.60;76.70
16116;DHT22;8162;47.104;15.432;2022-11-20T13:21:49;9.50;76.00
16116;DHT22;8162;47.104;15.432;2022-11-20T13:26:44;9.70;79.60
16116;DHT22;8162;47.104;15.432;2022-11-20T13:29:22;9.80;79.50
16116;DHT22;8162;47.104;15.432;2022-11-20T13:31:48;10.00;78.90
16116;DHT22;8162;47.104;15.432;2022-11-20T13:34:24;10.10;81.70
16116;DHT22;8162;47.104;15.432;2022-11-20T13:36:55;10.20;80.20
16116;DHT22;8162;47.104;15.432;2022-11-20T13:39:36;10.30;79.20
16116;DHT22;8162;47.104;15.432;2022-11-20T13:42:22;10.40;80.50
16116;DHT22;8162;47.104;15.432;2022-11-20T13:44:55;10.50;78.80
16116;DHT22;8162;47.104;15.432;2022-11-20T13:47:23;10.60;81.30
16116;DHT22;8162;47.104;15.432;2022-11-20T13:49:51;10.60;78.50
16116;DHT22;8162;47.104;15.432;2022-11-20T13:55:59;10.10;71.50
16116;DHT22;8162;47.104;15.432;2022-11-20T14:01:24;10.20;74.70
16116;DHT22;8162;47.104;15.432;2022-11-20T14:03:52;10.30;75.50
16116;DHT22;8162;47.104;15.432;2022-11-20T14:06:30;10.30;75.20
16116;DHT22;8162;47.104;15.432;2022-11-20T14:08:58;10.30;73.90
16116;DHT22;8162;47.104;15.432;2022-11-20T14:11:26;10.50;76.70
16116;DHT22;8162;47.104;15.432;2022-11-20T14:14:21;10.70;73.30
16116;DHT22;8162;47.104;15.432;2022-11-20T14:16:48;11.00;74.30
16116;DHT22;8162;47.104;15.432;2022-11-20T14:21:54;11.60;74.90
16116;DHT22;8162;47.104;15.432;2022-11-20T14:24:24;11.70;69.40
16116;DHT22;8162;47.104;15.432;2022-11-20T14:26:51;11.50;69.70
16116;DHT22;8162;47.104;15.432;2022-11-20T14:29:20;10.90;67.70
16116;DHT22;8162;47.104;15.432;2022-11-20T14:31:51;10.60;70.90
16116;DHT22;8162;47.104;15.432;2022-11-20T14:34:21;10.50;73.60
16116;DHT22;8162;47.104;15.432;2022-11-20T14:36:53;10.30;73.80
16116;DHT22;8162;47.104;15.432;2022-11-20T14:39:22;10.10;73.80
16116;DHT22;8162;47.104;15.432;2022-11-20T14:41:51;10.10;75.40
16116;DHT22;8162;47.104;15.432;2022-11-20T14:44:21;9.90;74.00
16116;DHT22;8162;47.104;15.432;2022-11-20T14:46:49;9.70;73.30
16116;DHT22;8162;47.104;15.432;2022-11-20T14:49:15;9.60;75.80
16116;DHT22;8162;47.104;15.432;2022-11-20T14:51:42;9.50;76.60
16116;DHT22;8162;47.104;15.432;2022-11-20T14:54:18;9.50;77.60
16116;DHT22;8162;47.104;15.432;2022-11-20T14:57:01;9.30;77.30
16116;DHT22;8162;47.104;15.432;2022-11-20T14:59:30;9.10;77.50
16116;DHT22;8162;47.104;15.432;2022-11-20T15:02:05;8.90;78.30
16116;DHT22;8162;47.104;15.432;2022-11-20T15:04:31;8.80;78.90
16116;DHT22;8162;47.104;15.432;2022-11-20T15:06:59;8.70;79.40
16116;DHT22;8162;47.104;15.432;2022-11-20T15:09:25;8.60;79.60
16116;DHT22;8162;47.104;15.432;2022-11-20T15:11:59;8.40;80.40
16116;DHT22;8162;47.104;15.432;2022-11-20T15:14:27;8.30;80.70
16116;DHT22;8162;47.104;15.432;2022-11-20T15:16:54;8.20;81.00
16116;DHT22;8162;47.104;15.432;2022-11-20T15:19:25;8.00;81.40
16116;DHT22;8162;47.104;15.432;2022-11-20T15:21:52;7.90;81.70
16116;DHT22;8162;47.104;15.432;2022-11-20T15:24:18;7.80;81.90
16116;DHT22;8162;47.104;15.432;2022-11-20T15:26:45;7.70;82.20
16116;DHT22;8162;47.104;15.432;2022-11-20T15:29:14;7.60;82.50
16116;DHT22;8162;47.104;15.432;2022-11-20T15:31:40;7.40;82.80
16116;DHT22;8162;47.104;15.432;2022-11-20T15:34:14;7.40;82.80
16116;DHT22;8162;47.104;15.432;2022-11-20T15:36:40;7.20;83.10
16116;DHT22;8162;47.104;15.432;2022-11-20T15:39:07;7.10;83.40
16116;DHT22;8162;47.104;15.432;2022-11-20T15:41:34;7.00;83.60
16116;DHT22;8162;47.104;15.432;2022-11-20T15:44:00;6.90;83.70
16116;DHT22;8162;47.104;15.432;2022-11-20T15:46:29;6.80;84.00
16116;DHT22;8162;47.104;15.432;2022-11-20T15:48:56;6.70;84.20
16116;DHT22;8162;47.104;15.432;2022-11-20T15:51:38;6.70;84.40
16116;DHT22;8162;47.104;15.432;2022-11-20T15:54:14;6.60;84.60
16116;DHT22;8162;47.104;15.432;2022-11-20T15:56:41;6.50;84.90
16116;DHT22;8162;47.104;15.432;2022-11-20T15:59:07;6.40;85.20
16116;DHT22;8162;47.104;15.432;2022-11-20T16:01:33;6.30;85.40
16116;DHT22;8162;47.104;15.432;2022-11-20T16:04:00;6.20;85.60
16116;DHT22;8162;47.104;15.432;2022-11-20T16:06:26;6.10;85.80
16116;DHT22;8162;47.104;15.432;2022-11-20T16:08:52;6.10;86.00
16116;DHT22;8162;47.104;15.432;2022-11-20T16:11:19;6.00;86.20
16116;DHT22;8162;47.104;15.432;2022-11-20T16:13:45;5.90;86.40
16116;DHT22;8162;47.104;15.432;2022-11-20T16:16:43;5.90;86.50
16116;DHT22;8162;47.104;15.432;2022-11-20T16:19:11;5.80;86.80
16116;DHT22;8162;47.104;15.432;2022-11-20T16:21:37;5.80;87.00
16116;DHT22;8162;47.104;15.432;2022-11-20T16:24:06;5.80;87.20
16116;DHT22;8162;47.104;15.432;2022-11-20T16:26:33;5.80;87.50
16116;DHT22;8162;47.104;15.432;2022-11-20T16:29:00;5.80;87.70
16116;DHT22;8162;47.104;15.432;2022-11-20T16:31:28;5.70;87.90
16116;DHT22;8162;47.104;15.432;2022-11-20T16:33:56;5.80;88.20
16116;DHT22;8162;47.104;15.432;2022-11-20T16:36:25;5.80;88.40
16116;DHT22;8162;47.104;15.432;2022-11-20T16:38:57;5.80;88.60
16116;DHT22;8162;47.104;15.432;2022-11-20T16:41:25;5.80;88.70
16116;DHT22;8162;47.104;15.432;2022-11-20T16:43:53;5.80;88.70
16116;DHT22;8162;47.104;15.432;2022-11-20T16:46:21;5.90;88.80
16116;DHT22;8162;47.104;15.432;2022-11-20T16:48:57;5.90;89.00
16116;DHT22;8162;47.104;15.432;2022-11-20T16:51:28;5.90;89.00
16116;DHT22;8162;47.104;15.432;2022-11-20T16:53:55;5.90;89.10
16116;DHT22;8162;47.104;15.432;2022-11-20T16:56:24;6.00;89.20
16116;DHT22;8162;47.104;15.432;2022-11-20T16:58:51;6.00;89.30
16116;DHT22;8162;47.104;15.432;2022-11-20T17:01:19;6.00;89.20
16116;DHT22;8162;47.104;15.432;2022-11-20T17:03:52;6.00;89.30
16116;DHT22;8162;47.104;15.432;2022-11-20T17:06:24;6.00;89.20
16116;DHT22;8162;47.104;15.432;2022-11-20T17:08:50;5.90;89.30
16116;DHT22;8162;47.104;15.432;2022-11-20T17:11:18;5.80;89.50
16116;DHT22;8162;47.104;15.432;2022-11-20T17:13:44;5.90;89.60
16116;DHT22;8162;47.104;15.432;2022-11-20T17:16:14;5.80;89.40
16116;DHT22;8162;47.104;15.432;2022-11-20T17:18:40;5.80;89.70
16116;DHT22;8162;47.104;15.432;2022-11-20T17:21:07;5.80;89.80
16116;DHT22;8162;47.104;15.432;2022-11-20T17:23:43;5.70;89.90
16116;DHT22;8162;47.104;15.432;2022-11-20T17:26:15;5.70;89.90
16116;DHT22;8162;47.104;15.432;2022-11-20T17:28:45;5.70;90.00
16116;DHT22;8162;47.104;15.432;2022-11-20T17:31:14;5.60;90.00
16116;DHT22;8162;47.104;15.432;2022-11-20T17:33:42;5.70;90.00
16116;DHT22;8162;47.104;15.432;2022-11-20T17:36:11;5.70;90.10
16116;DHT22;8162;47.104;15.432;2022-11-20T17:38:37;5.70;90.10
16116;DHT22;8162;47.104;15.432;2022-11-20T17:43:32;5.50;90.20
16116;DHT22;8162;47.104;15.432;2022-11-20T17:45:59;5.50;90.30
16116;DHT22;8162;47.104;15.432;2022-11-20T17:48:25;5.50;90.40
16116;DHT22;8162;47.104;15.432;2022-11-20T17:50:59;5.50;90.40
16116;DHT22;8162;47.104;15.432;2022-11-20T17:53:26;5.50;90.40
16116;DHT22;8162;47.104;15.432;2022-11-20T17:55:56;5.50;90.50
16116;DHT22;8162;47.104;15.432;2022-11-20T17:58:41;5.60;90.60
16116;DHT22;8162;47.104;15.432;2022-11-20T18:01:08;5.60;90.60